Time;durP1;ratioP1;P1;durP2;ratioP2;P2;SDS_P1;SDS_P2;PMS_P1;PMS_P2;Temp;Humidity;BMP_temperature;BMP_pressure;BME280_temperature;BME280_humidity;BME280_pressure;Samples;Min_cycle;Max_cycle;Signal;HPM_P1;HPM_P2
2022/10/15 00:00:53;;;;;;;56.50;36.60;;;;;;;;;;4970119;28;20035;-72
2022/10/15 00:03:19;;;;;;;58.78;36.30;;;;;;;;;;4969560;28;20042;-72
2022/10/15 00:05:45;;;;;;;66.35;38.65;;;;;;;;;;4967661;28;20121;-71
2022/10/15 00:08:11;;;;;;;60.35;37.45;;;;;;;;;;4971865;28;20045;-71
2022/10/15 00:10:37;;;;;;;65.55;39.22;;;;;;;;;;4967624;28;20047;-70
2022/10/15 00:13:04;;;;;;;63.33;38.35;;;;;;;;;;4971904;28;20491;-71
2022/10/15 00:15:30;;;;;;;65.13;40.05;;;;;;;;;;4970002;28;20455;-70
2022/10/15 00:17:56;;;;;;;68.95;39.08;;;;;;;;;;4968885;28;20031;-70
2022/10/15 00:20:22;;;;;;;66.78;40.20;;;;;;;;;;4968073;28;20063;-73
2022/10/15 00:22:48;;;;;;;67.78;40.47;;;;;;;;;;4970155;28;20448;-70
2022/10/15 00:25:14;;;;;;;73.55;40.00;;;;;;;;;;4966305;28;20023;-71
2022/10/15 00:27:40;;;;;;;62.65;39.50;;;;;;;;;;4970703;28;20031;-70
2022/10/15 00:30:07;;;;;;;68.95;39.25;;;;;;;;;;4970106;28;20074;-70
2022/10/15 00:32:33;;;;;;;67.60;39.40;;;;;;;;;;4969698;28;20027;-70
2022/10/15 00:34:59;;;;;;;71.53;40.90;;;;;;;;;;4969233;28;20472;-70
2022/10/15 00:37:25;;;;;;;63.75;39.25;;;;;;;;;;4970591;28;20035;-71
2022/10/15 00:39:51;;;;;;;64.32;39.90;;;;;;;;;;4969381;28;20629;-71
2022/10/15 00:42:17;;;;;;;66.00;38.53;;;;;;;;;;4971534;28;20190;-71
2022/10/15 00:44:48;;;;;;;62.85;39.33;;;;;;;;;;4964724;28;20493;-70
2022/10/15 00:47:14;;;;;;;65.28;39.33;;;;;;;;;;4970040;28;20038;-72
2022/10/15 00:49:42;;;;;;;62.88;37.97;;;;;;;;;;4970904;28;20103;-71
2022/10/15 00:52:17;;;;;;;64.32;40.13;;;;;;;;;;4967304;28;20283;-73
2022/10/15 00:54:47;;;;;;;64.60;39.55;;;;;;;;;;4956382;28;20031;-70
2022/10/15 00:57:14;;;;;;;62.97;36.95;;;;;;;;;;4969846;28;20081;-71
2022/10/15 00:59:42;;;;;;;67.07;40.72;;;;;;;;;;4969747;28;20387;-71
2022/10/15 01:02:09;;;;;;;65.55;38.85;;;;;;;;;;4966547;28;20031;-70
2022/10/15 01:04:35;;;;;;;59.72;37.72;;;;;;;;;;4968304;28;20523;-71
2022/10/15 01:07:01;;;;;;;67.55;39.92;;;;;;;;;;4969594;28;20101;-72
2022/10/15 01:09:27;;;;;;;59.80;37.42;;;;;;;;;;4970859;28;20082;-70
2022/10/15 01:11:54;;;;;;;64.05;38.78;;;;;;;;;;4965614;28;20054;-71
2022/10/15 01:14:43;;;;;;;64.53;38.42;;;13.00;99.90;;;;;;4970066;28;20026;-71
2022/10/15 01:17:21;;;;;;;65.18;41.13;;;;;;;;;;4970351;28;20066;-70
2022/10/15 01:19:50;;;;;;;58.35;37.88;;;;;;;;;;4970738;28;20102;-72
2022/10/15 01:22:31;;;;;;;55.95;36.53;;;;;;;;;;4966787;28;20031;-72
2022/10/15 01:25:11;;;;;;;66.88;38.53;;;;;;;;;;4964392;28;20117;-70
2022/10/15 01:27:45;;;;;;;72.68;37.80;;;;;;;;;;4964762;28;20061;-71
2022/10/15 01:30:16;;;;;;;66.22;36.80;;;;;;;;;;4967127;28;20035;-71
2022/10/15 01:33:01;;;;;;;65.15;37.05;;;;;;;;;;4972986;28;20030;-71
2022/10/15 01:35:36;;;;;;;61.97;37.10;;;;;;;;;;4973455;28;20065;-70
2022/10/15 01:38:09;;;;;;;62.20;35.95;;;;;;;;;;4972069;28;20046;-71
2022/10/15 01:40:44;;;;;;;64.53;36.45;;;;;;;;;;4972698;28;20121;-71
2022/10/15 01:43:16;;;;;;;68.38;36.67;;;;;;;;;;4972823;28;20068;-72
2022/10/15 01:45:48;;;;;;;69.80;39.30;;;;;;;;;;4970868;28;20084;-72
2022/10/15 01:48:15;;;;;;;62.72;37.03;;;;;;;;;;4970531;28;20038;-72
2022/10/15 01:50:49;;;;;;;68.13;38.25;;;;;;;;;;4967257;28;20087;-72
2022/10/15 01:53:17;;;;;;;72.05;37.85;;;;;;;;;;4972778;28;20035;-71
2022/10/15 01:55:44;;;;;;;62.90;36.33;;;;;;;;;;4967478;28;20040;-72
2022/10/15 01:58:11;;;;;;;65.50;36.47;;;;;;;;;;4971307;28;20031;-72
2022/10/15 02:00:38;;;;;;;64.40;37.42;;;;;;;;;;4970280;28;20382;-71
2022/10/15 02:03:04;;;;;;;61.05;35.00;;;;;;;;;;4986143;28;20038;-73
2022/10/15 02:05:36;;;;;;;67.45;35.42;;;;;;;;;;4982871;28;20043;-71
2022/10/15 02:08:05;;;;;;;56.13;32.17;;;;;;;;;;4971490;28;20041;-71
2022/10/15 02:10:37;;;;;;;65.63;35.30;;;;;;;;;;4968442;28;20111;-71
2022/10/15 02:13:22;;;;;;;64.78;33.33;;;;;;;;;;4972897;28;20471;-73
2022/10/15 02:15:57;;;;;;;64.43;34.42;;;;;;;;;;4965134;28;20046;-71
2022/10/15 02:18:23;;;;;;;71.15;36.28;;;;;;;;;;4970348;28;20464;-72
2022/10/15 02:20:52;;;;;;;65.47;36.47;;;;;;;;;;4971044;28;20042;-72
2022/10/15 02:23:20;;;;;;;73.18;35.92;;;;;;;;;;4973956;28;20464;-71
2022/10/15 02:25:47;;;;;;;66.57;37.33;;;;;;;;;;4971952;28;20062;-71
2022/10/15 02:28:15;;;;;;;66.18;35.50;;;;;;;;;;4971789;28;20484;-71
2022/10/15 02:30:42;;;;;;;72.07;36.95;;;;;;;;;;4971766;28;20046;-71
2022/10/15 02:33:08;;;;;;;74.22;39.65;;;;;;;;;;4973425;28;20074;-71
2022/10/15 02:35:35;;;;;;;76.32;39.45;;;;;;;;;;4970045;28;20105;-72
2022/10/15 02:38:03;;;;;;;76.63;39.60;;;;;;;;;;4970495;28;20106;-71
2022/10/15 02:40:30;;;;;;;67.93;38.95;;;;;;;;;;4964062;28;20477;-73
2022/10/15 02:42:56;;;;;;;66.78;38.05;;;;;;;;;;4969355;28;20372;-72
2022/10/15 02:45:22;;;;;;;77.07;39.65;;;;;;;;;;4971717;28;20122;-71
2022/10/15 02:47:48;;;;;;;65.25;37.03;;;;;;;;;;4972785;28;20151;-71
2022/10/15 02:50:14;;;;;;;62.28;35.50;;;;;;;;;;4971066;28;20043;-72
2022/10/15 02:52:40;;;;;;;59.05;34.90;;;;;;;;;;4973011;28;20085;-71
2022/10/15 02:55:06;;;;;;;60.63;34.92;;;;;;;;;;4969735;28;20031;-71
2022/10/15 02:57:32;;;;;;;60.40;34.20;;;;;;;;;;4970799;28;20054;-73
2022/10/15 02:59:58;;;;;;;57.22;34.25;;;;;;;;;;4971409;28;20055;-73
2022/10/15 03:02:24;;;;;;;66.25;34.50;;;;;;;;;;4972182;28;20511;-71
2022/10/15 03:04:50;;;;;;;60.05;34.70;;;;;;;;;;4970927;28;20035;-71
2022/10/15 03:07:16;;;;;;;59.45;34.67;;;;;;;;;;4968564;28;20030;-72
2022/10/15 03:09:42;;;;;;;62.55;36.50;;;;;;;;;;4972364;28;20043;-72
2022/10/15 03:12:08;;;;;;;57.00;33.97;;;;;;;;;;4963671;28;20074;-71
2022/10/15 03:14:34;;;;;;;64.43;35.35;;;;;;;;;;4972260;28;20065;-71
2022/10/15 03:17:00;;;;;;;67.15;38.00;;;;;;;;;;4970786;28;20068;-71
2022/10/15 03:19:26;;;;;;;62.65;37.15;;;;;;;;;;4968069;28;20055;-71
2022/10/15 03:21:52;;;;;;;62.70;34.38;;;;;;;;;;4968097;28;20073;-71
2022/10/15 03:24:18;;;;;;;68.35;37.10;;;;;;;;;;4971728;28;20038;-71
2022/10/15 03:26:44;;;;;;;68.32;36.38;;;;;;;;;;4968516;28;20380;-71
2022/10/15 03:29:10;;;;;;;69.82;36.78;;;;;;;;;;4970792;28;20102;-71
2022/10/15 03:31:36;;;;;;;71.13;37.80;;;;;;;;;;4970531;28;20046;-71
2022/10/15 03:34:02;;;;;;;73.25;37.53;;;;;;;;;;4972028;28;20046;-71
2022/10/15 03:36:28;;;;;;;72.70;37.15;;;;;;;;;;4964292;28;20125;-73
2022/10/15 03:38:54;;;;;;;71.65;36.88;;;;;;;;;;4971889;28;20058;-72
2022/10/15 03:41:20;;;;;;;74.60;38.80;;;;;;;;;;4970926;28;20099;-73
2022/10/15 03:43:46;;;;;;;73.30;38.70;;;;;;;;;;4968704;28;20023;-72
2022/10/15 03:46:12;;;;;;;80.70;40.13;;;;;;;;;;4969322;28;20062;-73
2022/10/15 03:48:38;;;;;;;82.95;42.15;;;;;;;;;;4976913;28;20043;-71
2022/10/15 03:51:04;;;;;;;82.97;40.95;;;;;;;;;;4986501;28;20060;-71
2022/10/15 03:53:30;;;;;;;91.53;43.03;;;;;;;;;;4984956;28;20039;-71
2022/10/15 03:56:01;;;;;;;88.40;43.63;;;;;;;;;;4970710;28;20023;-71
2022/10/15 03:58:27;;;;;;;84.15;41.00;;;;;;;;;;4968696;28;20050;-72
2022/10/15 04:00:53;;;;;;;96.55;45.17;;;;;;;;;;4967777;28;20031;-71
2022/10/15 04:03:19;;;;;;;82.05;40.25;;;;;;;;;;4967104;28;20030;-71
2022/10/15 04:05:52;;;;;;;82.28;42.92;;;;;;;;;;4966033;28;20033;-71
2022/10/15 04:08:18;;;;;;;86.43;43.38;;;;;;;;;;4967693;28;20443;-70
2022/10/15 04:10:44;;;;;;;81.10;39.97;;;;;;;;;;4971385;28;20027;-74
2022/10/15 04:13:10;;;;;;;78.78;40.65;;;;;;;;;;4970144;28;20101;-73
2022/10/15 04:15:39;;;;;;;87.25;42.65;;;;;;;;;;4971296;28;20535;-73
2022/10/15 04:18:05;;;;;;;79.88;41.00;;;;;;;;;;4967955;28;20435;-73
2022/10/15 04:20:31;;;;;;;76.03;41.08;;;;;;;;;;4968661;28;20123;-73
2022/10/15 04:22:57;;;;;;;83.00;41.30;;;;;;;;;;4966500;28;20105;-71
2022/10/15 04:25:23;;;;;;;92.70;46.72;;;;;;;;;;4969810;28;20041;-71
2022/10/15 04:27:49;;;;;;;82.63;43.03;;;;;;;;;;4969621;28;20039;-71
2022/10/15 04:30:15;;;;;;;87.75;42.97;;;;;;;;;;4966151;28;20031;-72
2022/10/15 04:32:41;;;;;;;76.32;40.63;;;;;;;;;;4971394;28;20043;-71
2022/10/15 04:35:07;;;;;;;90.57;41.33;;;;;;;;;;4968128;28;20049;-74
2022/10/15 04:37:33;;;;;;;75.10;40.38;;;;;;;;;;4970693;28;20041;-71
2022/10/15 04:39:59;;;;;;;78.85;40.55;;;;;;;;;;4969755;28;20431;-70
2022/10/15 04:42:25;;;;;;;85.15;41.40;;;;;;;;;;4970231;28;20078;-70
2022/10/15 04:44:51;;;;;;;75.43;40.67;;;;;;;;;;4969903;28;20031;-70
2022/10/15 04:47:17;;;;;;;79.57;40.97;;;;;;;;;;4970307;28;20078;-71
2022/10/15 04:49:43;;;;;;;89.30;41.97;;;;;;;;;;4968569;28;20027;-71
2022/10/15 04:52:09;;;;;;;77.72;40.60;;;;;;;;;;4968683;28;20039;-71
2022/10/15 04:54:35;;;;;;;86.63;42.63;;;;;;;;;;4979805;28;20101;-71
2022/10/15 04:57:02;;;;;;;84.82;40.85;;;;;;;;;;4965517;28;20468;-73
2022/10/15 04:59:28;;;;;;;87.93;43.40;;;;;;;;;;4969969;28;20043;-70
2022/10/15 05:01:54;;;;;;;97.20;43.22;;;;;;;;;;4973365;28;20117;-70
2022/10/15 05:04:20;;;;;;;88.22;43.28;;;;;;;;;;4967704;28;20118;-71
2022/10/15 05:06:46;;;;;;;79.30;43.00;;;;;;;;;;4973692;28;20026;-71
2022/10/15 05:09:13;;;;;;;92.97;45.10;;;;;;;;;;4974726;28;20035;-71
2022/10/15 05:11:39;;;;;;;90.70;45.38;;;;;;;;;;4972052;28;20054;-70
2022/10/15 05:14:05;;;;;;;95.47;45.92;;;;;;;;;;4972538;28;20421;-71
2022/10/15 05:16:31;;;;;;;99.40;47.40;;;;;;;;;;4985100;28;20514;-71
2022/10/15 05:18:59;;;;;;;96.20;46.28;;;;;;;;;;4973329;28;20042;-71
2022/10/15 05:21:25;;;;;;;91.40;45.80;;;;;;;;;;4973928;28;20057;-70
2022/10/15 05:23:52;;;;;;;91.25;46.33;;;;;;;;;;4971804;28;20035;-72
2022/10/15 05:26:19;;;;;;;103.82;50.47;;;;;;;;;;4967491;28;20117;-71
2022/10/15 05:28:45;;;;;;;96.88;48.95;;;;;;;;;;4956598;28;20039;-71
2022/10/15 05:31:13;;;;;;;95.78;48.42;;;;;;;;;;4973306;28;20031;-70
2022/10/15 05:33:39;;;;;;;105.75;50.70;;;;;;;;;;4973303;28;20042;-70
2022/10/15 05:36:09;;;;;;;110.25;50.53;;;;;;;;;;4973191;28;20103;-71
2022/10/15 05:38:35;;;;;;;105.53;50.40;;;;;;;;;;4974473;28;20038;-73
2022/10/15 05:41:01;;;;;;;104.88;52.42;;;;;;;;;;4971513;28;20290;-70
2022/10/15 05:43:27;;;;;;;112.07;54.28;;;;;;;;;;4969902;28;20031;-71
2022/10/15 05:45:53;;;;;;;107.15;53.42;;;;;;;;;;4973691;28;20427;-72
2022/10/15 05:48:19;;;;;;;108.40;54.13;;;;;;;;;;4973047;28;20038;-72
2022/10/15 05:50:45;;;;;;;115.35;54.47;;;;;;;;;;4974204;28;20089;-72
2022/10/15 05:53:11;;;;;;;118.78;57.47;;;;;;;;;;4970859;28;20058;-71
2022/10/15 05:55:38;;;;;;;111.57;52.15;;;;;;;;;;4972347;28;20042;-72
2022/10/15 05:58:04;;;;;;;112.22;53.50;;;;;;;;;;4968479;28;20070;-71
2022/10/15 06:00:30;;;;;;;109.63;53.60;;;;;;;;;;4973793;28;20051;-71
2022/10/15 06:02:56;;;;;;;117.85;53.38;;;;;;;;;;4971248;28;20427;-71
2022/10/15 06:05:22;;;;;;;122.03;55.08;;;;;;;;;;4972991;28;20031;-71
2022/10/15 06:07:48;;;;;;;122.88;57.85;;;;;;;;;;4972198;28;20085;-72
2022/10/15 06:10:14;;;;;;;118.93;56.45;;;;;;;;;;4963336;28;20472;-73
2022/10/15 06:12:41;;;;;;;124.78;59.30;;;;;;;;;;4970898;28;20061;-72
2022/10/15 06:15:08;;;;;;;129.65;59.58;;;;;;;;;;4972184;28;20081;-72
2022/10/15 06:17:34;;;;;;;129.13;59.88;;;;;;;;;;4968307;28;20660;-71
2022/10/15 06:20:00;;;;;;;118.35;59.00;;;;;;;;;;4972722;28;20646;-71
2022/10/15 06:22:26;;;;;;;122.60;58.35;;;;;;;;;;4962060;28;20046;-73
2022/10/15 06:24:52;;;;;;;128.00;57.65;;;;;;;;;;4973058;28;20035;-72
2022/10/15 06:27:18;;;;;;;129.00;60.40;;;;;;;;;;4958918;28;20450;-71
2022/10/15 06:29:44;;;;;;;133.82;61.67;;;;;;;;;;4962885;28;20319;-71
2022/10/15 06:32:10;;;;;;;127.85;59.50;;;;;;;;;;4950423;28;20117;-71
2022/10/15 06:34:36;;;;;;;120.93;57.10;;;;;;;;;;4951975;28;20078;-72
2022/10/15 06:37:02;;;;;;;131.95;62.20;;;;;;;;;;4952299;28;20112;-71
2022/10/15 06:39:28;;;;;;;119.43;59.40;;;;;;;;;;4953232;28;21074;-73
2022/10/15 06:41:54;;;;;;;135.32;60.47;;;;;;;;;;4958809;28;20086;-71
2022/10/15 06:44:20;;;;;;;138.60;61.30;;;;;;;;;;4967683;28;20033;-71
2022/10/15 06:46:46;;;;;;;139.77;61.58;;;;;;;;;;4965941;28;20031;-71
2022/10/15 06:49:12;;;;;;;134.10;61.88;;;;;;;;;;4957026;28;20065;-72
2022/10/15 06:51:38;;;;;;;136.38;62.75;;;;;;;;;;4967671;28;20126;-72
2022/10/15 06:54:04;;;;;;;122.60;56.95;;;;;;;;;;4969997;28;20806;-72
2022/10/15 06:56:30;;;;;;;118.80;57.95;;;;;;;;;;4969938;28;20558;-72
2022/10/15 06:58:56;;;;;;;128.02;60.75;;;;;;;;;;4973138;28;20026;-71
2022/10/15 07:01:22;;;;;;;120.68;58.13;;;;;;;;;;4970113;28;20530;-72
2022/10/15 07:03:49;;;;;;;120.78;58.75;;;;;;;;;;4971055;28;20113;-72
2022/10/15 07:06:15;;;;;;;117.55;58.20;;;;;;;;;;4968286;28;20472;-72
2022/10/15 07:08:41;;;;;;;125.50;57.90;;;;;;;;;;4969078;28;20041;-73
2022/10/15 07:11:08;;;;;;;135.80;62.50;;;;;;;;;;4968440;28;20041;-72
2022/10/15 07:13:34;;;;;;;126.22;58.95;;;;;;;;;;4959835;28;20042;-72
2022/10/15 07:16:07;;;;;;;118.97;56.25;;;;;;;;;;4968412;28;20035;-71
2022/10/15 07:18:34;;;;;;;130.40;58.92;;;;;;;;;;4963739;28;20062;-71
2022/10/15 07:21:00;;;;;;;122.72;59.00;;;;;;;;;;4960624;28;20031;-71
2022/10/15 07:23:27;;;;;;;141.07;62.70;;;;;;;;;;4965780;28;20035;-71
2022/10/15 07:25:53;;;;;;;128.48;59.33;;;;;;;;;;4971489;28;20121;-72
2022/10/15 07:28:19;;;;;;;131.50;64.05;;;;;;;;;;4967864;28;20031;-72
2022/10/15 07:30:45;;;;;;;121.30;59.95;;;;;;;;;;4968839;28;20042;-72
2022/10/15 07:33:11;;;;;;;133.07;61.38;;;;;;;;;;4970187;28;20022;-71
2022/10/15 07:35:37;;;;;;;131.18;60.72;;;;;;;;;;4972333;28;20049;-71
2022/10/15 07:38:03;;;;;;;136.63;61.60;;;;;;;;;;4971396;28;20026;-72
2022/10/15 07:40:29;;;;;;;115.00;58.05;;;;;;;;;;4970014;28;20034;-71
2022/10/15 07:42:56;;;;;;;126.65;57.55;;;;;;;;;;4968571;28;20530;-72
2022/10/15 07:45:23;;;;;;;136.68;63.05;;;;;;;;;;4964996;28;20074;-71
2022/10/15 07:47:49;;;;;;;129.20;61.72;;;;;;;;;;4971962;28;20363;-71
2022/10/15 07:50:15;;;;;;;125.45;58.65;;;;;;;;;;4971639;28;20069;-70
2022/10/15 07:52:41;;;;;;;132.95;59.20;;;;;;;;;;4963376;28;20039;-71
2022/10/15 07:55:07;;;;;;;136.98;62.00;;;;;;;;;;4955225;28;20027;-71
2022/10/15 07:57:34;;;;;;;139.00;63.15;;;;;;;;;;4956399;28;20050;-71
2022/10/15 08:00:00;;;;;;;140.43;64.22;;;;;;;;;;4970087;28;20023;-71
2022/10/15 08:02:26;;;;;;;137.10;62.50;;;;;;;;;;4974962;28;20054;-70
2022/10/15 08:04:53;;;;;;;134.68;60.00;;;;;;;;;;4971116;28;20039;-71
2022/10/15 08:07:19;;;;;;;148.63;62.63;;;;;;;;;;4971706;28;20483;-70
2022/10/15 08:09:46;;;;;;;148.95;63.95;;;;;;;;;;4969644;28;20042;-70
2022/10/15 08:12:12;;;;;;;135.40;58.42;;;;;;;;;;4966773;28;20081;-71
2022/10/15 08:14:39;;;;;;;134.23;58.75;;;;;;;;;;4968950;28;20480;-73
2022/10/15 08:17:05;;;;;;;139.95;59.35;;;;;;;;;;4965709;28;20035;-71
2022/10/15 08:19:32;;;;;;;151.30;62.85;;;;;;;;;;4964682;28;20502;-71
2022/10/15 08:21:58;;;;;;;148.63;63.05;;;;;;;;;;4967999;28;20093;-70
2022/10/15 08:24:24;;;;;;;134.95;60.92;;;;;;;;;;4968119;28;20066;-69
2022/10/15 08:26:50;;;;;;;118.47;58.30;;;;;;;;;;4965935;28;20137;-70
2022/10/15 08:29:16;;;;;;;146.85;58.83;;;;;;;;;;4967582;28;20109;-70
2022/10/15 08:31:42;;;;;;;140.07;58.53;;;;;;;;;;4968973;28;20093;-71
2022/10/15 08:34:09;;;;;;;141.88;58.75;;;;;;;;;;4962844;28;20085;-71
2022/10/15 08:36:35;;;;;;;140.43;57.75;;;;;;;;;;4971044;28;20097;-70
2022/10/15 08:39:01;;;;;;;135.93;57.90;;;;;;;;;;4956503;28;20046;-72
2022/10/15 08:41:30;;;;;;;135.52;55.42;;;;;;;;;;4966295;28;21103;-69
2022/10/15 08:43:56;;;;;;;122.18;54.67;;;;;;;;;;4973791;28;20395;-70
2022/10/15 08:46:31;;;;;;;123.15;55.35;;;;;;;;;;4974728;28;20061;-71
2022/10/15 08:48:59;;;;;;;111.95;52.63;;;;;;;;;;4974210;28;20041;-69
2022/10/15 08:51:28;;;;;;;104.97;50.95;;;;;;;;;;4968402;28;20031;-70
2022/10/15 08:53:59;;;;;;;112.53;52.85;;;;;;;;;;4987143;28;20042;-70
2022/10/15 08:56:35;;;;;;;108.40;49.75;;;;;;;;;;4975880;28;20049;-71
2022/10/15 08:59:38;;;;;;;99.88;50.80;;;13.10;99.90;;;;;;4966558;28;20026;-71
2022/10/15 09:02:12;;;;;;;;;;;13.30;99.90;;;;;;4975917;28;20027;-70
2022/10/15 09:04:47;;;;;;;103.20;50.30;;;;;;;;;;4965241;28;19959;-70
2022/10/15 09:07:16;;;;;;;101.63;50.15;;;;;;;;;;4967594;28;20042;-69
2022/10/15 09:09:50;;;;;;;88.15;45.72;;;;;;;;;;4971613;28;20073;-70
2022/10/15 09:12:35;;;;;;;89.63;45.33;;;;;;;;;;4980317;28;20065;-72
2022/10/15 09:15:02;;;;;;;83.53;42.97;;;;;;;;;;4964966;28;20379;-71
2022/10/15 09:17:30;;;;;;;82.53;43.35;;;;;;;;;;4972736;28;20542;-78
2022/10/15 09:19:58;;;;;;;87.55;43.45;;;;;;;;;;4962946;28;20054;-69
2022/10/15 09:22:25;;;;;;;76.28;41.28;;;;;;;;;;4972225;28;20058;-69
2022/10/15 09:24:52;;;;;;;76.93;40.67;;;;;;;;;;4964352;28;20027;-69
2022/10/15 09:27:26;;;;;;;79.68;42.85;;;;;;;;;;4969278;28;20266;-70
2022/10/15 09:30:16;;;;;;;76.13;41.88;;;;;;;;;;4966657;28;20035;-71
2022/10/15 09:32:48;;;;;;;75.30;40.95;;;;;;;;;;4960636;28;20510;-72
2022/10/15 09:35:20;;;;;;;70.15;36.95;;;;;;;;;;4969601;28;20087;-71
2022/10/15 09:37:54;;;;;;;73.68;38.10;;;;;;;;;;4989143;28;20143;-71
2022/10/15 09:40:43;;;;;;;60.70;34.13;;;;;;;;;;4962440;28;20346;-71
2022/10/15 09:43:09;;;;;;;58.40;33.80;;;;;;;;;;4989513;28;20085;-71
2022/10/15 09:45:35;;;;;;;53.67;31.13;;;;;;;;;;4974617;28;20027;-70
2022/10/15 09:48:02;;;;;;;52.85;31.27;;;;;;;;;;4967620;28;20050;-72
2022/10/15 09:50:36;;;;;;;59.88;32.35;;;;;;;;;;4973863;28;20089;-72
2022/10/15 09:53:21;;;;;;;57.72;30.83;;;;;;;;;;4961022;28;20059;-71
2022/10/15 09:55:50;;;;;;;55.03;32.15;;;;;;;;;;4955569;28;20143;-71
2022/10/15 09:58:19;;;;;;;56.10;31.48;;;;;;;;;;4952249;28;20062;-72
2022/10/15 10:00:52;;;;;;;52.20;30.77;;;;;;;;;;4973633;28;20538;-71
2022/10/15 10:03:18;;;;;;;56.67;31.38;;;;;;;;;;4974377;28;20030;-72
2022/10/15 10:05:44;;;;;;;52.50;30.42;;;;;;;;;;4968234;28;20062;-72
2022/10/15 10:08:24;;;;;;;55.50;30.40;;;;;;;;;;4968682;28;20055;-70
2022/10/15 10:10:54;;;;;;;46.58;27.90;;;;;;;;;;4967812;28;20022;-71
2022/10/15 10:13:35;;;;;;;47.47;27.70;;;;;;;;;;4973954;28;20050;-71
2022/10/15 10:16:04;;;;;;;46.60;26.90;;;;;;;;;;4971932;28;20117;-72
2022/10/15 10:18:31;;;;;;;41.60;25.25;;;;;;;;;;4964558;28;20435;-70
2022/10/15 10:20:58;;;;;;;44.95;26.80;;;;;;;;;;4973407;28;20023;-71
2022/10/15 10:23:34;;;;;;;39.25;24.65;;;;;;;;;;4970074;28;20105;-71
2022/10/15 10:26:10;;;;;;;39.08;25.48;;;;;;;;;;4975184;28;20035;-70
2022/10/15 10:28:52;;;;;;;38.67;23.58;;;;;;;;;;4968667;28;20038;-71
2022/10/15 10:31:26;;;;;;;36.70;23.33;;;;;;;;;;4971837;28;20046;-71
2022/10/15 10:33:52;;;;;;;32.65;20.75;;;;;;;;;;4967307;28;20045;-71
2022/10/15 10:36:25;;;;;;;34.78;21.48;;;;;;;;;;4972970;28;20419;-72
2022/10/15 10:39:00;;;;;;;29.45;20.60;;;;;;;;;;4972385;28;20724;-71
2022/10/15 10:41:46;;;;;;;33.92;21.40;;;;;;;;;;4967624;28;20042;-72
2022/10/15 10:44:19;;;;;;;31.20;20.83;;;;;;;;;;4965424;28;20543;-72
2022/10/15 10:46:53;;;;;;;34.20;21.13;;;;;;;;;;4974116;28;20034;-70
2022/10/15 10:49:30;;;;;;;30.92;20.45;;;;;;;;;;4973928;28;20358;-71
2022/10/15 10:51:56;;;;;;;28.60;19.00;;;;;;;;;;4973416;28;20031;-71
2022/10/15 10:54:22;;;;;;;27.98;18.33;;;;;;;;;;4963211;28;20031;-71
2022/10/15 10:56:49;;;;;;;26.60;17.92;;;;;;;;;;4973787;28;20110;-70
2022/10/15 10:59:19;;;;;;;26.10;17.90;;;;;;;;;;4966241;28;20078;-70
2022/10/15 11:01:45;;;;;;;24.60;17.20;;;;;;;;;;4970028;28;20364;-70
2022/10/15 11:04:12;;;;;;;25.13;16.70;;;;;;;;;;4972236;28;20621;-70
2022/10/15 11:06:49;;;;;;;23.83;16.70;;;;;;;;;;4973533;28;20042;-73
2022/10/15 11:09:22;;;;;;;20.50;15.60;;;;;;;;;;4966178;28;20492;-71
2022/10/15 11:11:54;;;;;;;18.75;14.75;;;;;;;;;;4972201;28;20057;-71
2022/10/15 11:14:43;;;;;;;21.48;15.73;;;14.90;99.90;;;;;;4962963;28;20530;-71
2022/10/15 11:17:27;;;;;;;17.85;14.20;;;;;;;;;;4959131;28;20054;-71
2022/10/15 11:19:59;;;;;;;23.80;14.48;;;;;;;;;;4961822;28;20416;-71
2022/10/15 11:22:40;;;;;;;16.52;13.85;;;;;;;;;;4953598;28;20078;-70
2022/10/15 11:25:21;;;;;;;19.83;15.03;;;;;;;;;;4968164;28;20031;-71
2022/10/15 11:28:06;;;;;;;19.58;12.95;;;;;;;;;;4973247;28;20030;-71
2022/10/15 11:30:41;;;;;;;16.85;11.90;;;;;;;;;;4971111;28;20038;-70
2022/10/15 11:33:07;;;;;;;20.17;13.15;;;;;;;;;;4971570;28;20113;-71
2022/10/15 11:35:46;;;;;;;15.23;12.23;;;;;;;;;;4967681;28;20132;-74
2022/10/15 11:38:18;;;;;;;16.13;13.23;;;;;;;;;;4965266;28;20434;-70
2022/10/15 11:40:51;;;;;;;13.55;12.15;;;;;;;;;;4964799;28;20395;-71
2022/10/15 11:43:36;;;;;;;14.80;11.63;;;;;;;;;;4980827;28;20031;-71
2022/10/15 11:46:05;;;;;;;13.38;11.55;;;;;;;;;;4967129;28;20093;-71
2022/10/15 11:48:31;;;;;;;14.35;12.75;;;;;;;;;;4970969;28;20031;-70
2022/10/15 11:51:02;;;;;;;14.85;12.50;;;;;;;;;;4963025;28;20078;-72
2022/10/15 11:53:43;;;;;;;14.98;12.15;;;;;;;;;;4971700;28;20400;-71
2022/10/15 11:56:14;;;;;;;13.85;11.18;;;;;;;;;;4971878;28;20038;-70
2022/10/15 11:58:49;;;;;;;18.85;13.23;;;;;;;;;;4966191;28;20034;-70
2022/10/15 12:01:21;;;;;;;24.25;17.80;;;;;;;;;;4963871;28;20034;-69
2022/10/15 12:03:47;;;;;;;;;;;;;;;;;;4972014;28;20357;-70
2022/10/15 12:06:15;;;;;;;13.48;11.13;;;;;;;;;;4971996;28;19921;-69
2022/10/15 12:08:42;;;;;;;14.95;11.07;;;;;;;;;;4960198;28;20035;-71
2022/10/15 12:11:11;;;;;;;13.95;11.07;;;;;;;;;;4971991;28;20034;-70
2022/10/15 12:13:43;;;;;;;14.70;11.70;;;;;;;;;;4961441;28;20058;-69
2022/10/15 12:16:20;;;;;;;15.45;11.38;;;;;;;;;;4963176;28;20045;-71
2022/10/15 12:18:46;;;;;;;16.38;12.40;;;;;;;;;;4963198;28;20050;-72
2022/10/15 12:21:32;;;;;;;15.68;12.30;;;;;;;;;;4964247;28;20049;-72
2022/10/15 12:23:58;;;;;;;14.38;12.10;;;;;;;;;;4965578;28;20486;-69
2022/10/15 12:26:24;;;;;;;16.30;13.00;;;;;;;;;;4962394;28;20039;-70
2022/10/15 12:28:52;;;;;;;17.45;12.40;;;;;;;;;;4964371;28;20521;-69
2022/10/15 12:31:19;;;;;;;18.05;13.45;;;;;;;;;;4961997;28;20038;-73
2022/10/15 12:33:48;;;;;;;18.38;14.32;;;;;;;;;;4966356;28;20095;-70
2022/10/15 12:36:29;;;;;;;16.30;13.13;;;;;;;;;;4965520;28;20331;-70
2022/10/15 12:39:06;;;;;;;17.85;14.63;;;;;;;;;;4963586;28;20023;-70
2022/10/15 12:41:35;;;;;;;20.17;14.02;;;;;;;;;;4965190;28;20050;-72
2022/10/15 12:44:27;;;;;;;19.33;15.20;;;;;;;;;;4961133;28;20030;-70
2022/10/15 12:46:53;;;;;;;16.85;13.25;;;;;;;;;;4961722;28;20102;-70
2022/10/15 12:49:29;;;;;;;20.33;13.82;;;;;;;;;;4965137;28;20022;-70
2022/10/15 12:51:56;;;;;;;20.55;14.30;;;;;;;;;;4976213;28;20101;-70
2022/10/15 12:54:33;;;;;;;30.20;21.63;;;;;;;;;;4963494;28;20026;-71
2022/10/15 12:56:59;;;;;;;37.15;28.27;;;;;;;;;;4962865;28;23182;-71
2022/10/15 12:59:30;;;;;;;18.75;14.55;;;;;;;;;;4959450;28;20484;-70
2022/10/15 13:01:56;;;;;;;18.52;13.48;;;;;;;;;;4961175;28;20038;-70
2022/10/15 13:04:22;;;;;;;18.67;13.75;;;;;;;;;;4965131;28;20081;-70
2022/10/15 13:06:48;;;;;;;21.85;13.82;;;;;;;;;;4964240;28;20074;-71
2022/10/15 13:09:27;;;;;;;18.77;13.57;;;;;;;;;;4961551;28;20019;-70
2022/10/15 13:11:54;;;;;;;19.15;13.20;;;;;;;;;;4965387;28;20039;-72
2022/10/15 13:14:39;;;;;;;17.17;13.30;;;;;;;;;;4964265;28;20054;-70
2022/10/15 13:17:15;;;;;;;16.88;12.63;;;;;;;;;;4954988;28;20102;-70
2022/10/15 13:19:51;;;;;;;18.00;12.73;;;;;;;;;;4963204;28;20027;-70
2022/10/15 13:22:28;;;;;;;20.15;13.25;;;;;;;;;;4961681;28;20030;-69
2022/10/15 13:24:54;;;;;;;19.70;13.38;;;;;;;;;;4961896;28;20034;-70
2022/10/15 13:27:36;;;;;;;20.42;14.13;;;;;;;;;;4966886;28;20097;-71
2022/10/15 13:30:09;;;;;;;18.33;14.10;;;;;;;;;;4964623;28;20031;-70
2022/10/15 13:32:40;;;;;;;23.15;14.60;;;;;;;;;;4980923;28;20058;-70
2022/10/15 13:35:11;;;;;;;20.70;14.45;;;;;;;;;;4967243;28;20026;-70
2022/10/15 13:37:38;;;;;;;19.50;13.80;;;;;;;;;;4963944;28;20034;-76
2022/10/15 13:40:05;;;;;;;20.15;13.57;;;;;;;;;;4965442;28;20034;-71
2022/10/15 13:42:31;;;;;;;20.45;14.63;;;;;;;;;;4967037;28;20050;-70
2022/10/15 13:44:57;;;;;;;17.23;13.10;;;;;;;;;;4966547;28;20448;-70
2022/10/15 13:47:31;;;;;;;21.27;13.88;;;;;;;;;;4967505;28;20043;-70
2022/10/15 13:50:16;;;;;;;18.30;13.45;;;;;;;;;;4960064;28;20038;-70
2022/10/15 13:52:43;;;;;;;18.02;13.52;;;;;;;;;;4968483;28;20499;-70
2022/10/15 13:55:16;;;;;;;21.38;14.73;;;;;;;;;;4964374;28;20042;-68
2022/10/15 13:57:41;;;;;;;;;;;;;;;;;;4968503;28;20039;-69
2022/10/15 14:00:18;;;;;;;16.70;12.23;;;;;;;;;;4961451;28;20007;-68
2022/10/15 14:02:45;;;;;;;14.98;10.77;;;;;;;;;;4986810;28;20038;-70
2022/10/15 14:05:17;;;;;;;15.63;11.00;;;;;;;;;;4983397;28;20033;-69
2022/10/15 14:07:43;;;;;;;17.92;11.95;;;;;;;;;;4973281;28;20042;-69
2022/10/15 14:10:09;;;;;;;16.92;11.93;;;;;;;;;;4967392;28;20035;-69
2022/10/15 14:12:35;;;;;;;14.25;10.13;;;;;;;;;;4988254;28;20062;-70
2022/10/15 14:15:20;;;;;;;13.25;9.93;;;;;;;;;;4965088;28;20050;-70
2022/10/15 14:17:49;;;;;;;14.80;10.85;;;;;;;;;;4970471;28;20031;-70
2022/10/15 14:20:19;;;;;;;15.35;9.30;;;;;;;;;;4968326;28;20031;-69
2022/10/15 14:22:48;;;;;;;17.02;11.73;;;;;;;;;;4957997;28;20042;-70
2022/10/15 14:25:15;;;;;;;10.38;8.50;;;;;;;;;;4973173;28;20070;-69